< < Back
Terminal Aerodrome Forecast


Current Version              Previous Versions:   1  2  3  4  5  6  7  8  9  

Terminal Aerodrome Forecast

268
FTUS42 KJAX 312100 AAA
TAFJAX
TAF AMD
KJAX 312112Z 3121/0118 12010KT P6SM SCT045 BKN250
     FM010000 15005KT P6SM FEW030 SCT100 BKN250=

Latest METAR

568
SAUS80 KWBC 011400 RRI
MTRJAX
METAR KJAX 011356Z 20005KT 10SM SCT250 30/23 A3012 RMK AO2 SLP200
T03000233


USA.gov is the U.S. government's official web portal to all federal, state and local government web resources and services.